Time;durP1;ratioP1;P1;durP2;ratioP2;P2;SDS_P1;SDS_P2;PMS_P1;PMS_P2;Temp;Humidity;BMP_temperature;BMP_pressure;BME280_temperature;BME280_humidity;BME280_pressure;Samples;Min_cycle;Max_cycle;Signal;HPM_P1;HPM_P2
2022/12/21 00:01:48;;;;;;;3.00;2.67;;;4.30;99.90;;;;;;5058777;28;20107;-74
2022/12/21 00:04:14;;;;;;;3.88;1.52;;;2.90;99.90;;;;;;5059417;28;20083;-74
2022/12/21 00:06:40;;;;;;;5.30;2.60;;;3.20;99.90;;;;;;5058764;28;20260;-74
2022/12/21 00:09:10;;;;;;;4.25;2.65;;;3.10;99.90;;;;;;5059208;28;20212;-74
2022/12/21 00:11:36;;;;;;;3.80;2.97;;;3.70;99.90;;;;;;5059384;28;20043;-74
2022/12/21 00:14:03;;;;;;;4.70;2.80;;;4.50;99.90;;;;;;5057618;28;20031;-73
2022/12/21 00:16:31;;;;;;;3.10;2.72;;;3.20;99.90;;;;;;5058478;28;20069;-73
2022/12/21 00:18:57;;;;;;;2.53;2.30;;;3.80;99.90;;;;;;5062474;28;20062;-73
2022/12/21 00:21:28;;;;;;;2.97;2.65;;;3.20;99.90;;;;;;5061941;28;20032;-73
2022/12/21 00:23:58;;;;;;;2.63;2.30;;;3.20;99.90;;;;;;5061681;28;20236;-74
2022/12/21 00:26:26;;;;;;;1.88;1.77;;;3.50;99.90;;;;;;5062951;28;20033;-73
2022/12/21 00:28:54;;;;;;;4.32;2.30;;;3.10;99.90;;;;;;5062056;28;20029;-73
2022/12/21 00:31:31;;;;;;;3.28;2.28;;;3.80;99.90;;;;;;5064039;28;20021;-73
2022/12/21 00:33:57;;;;;;;3.22;2.55;;;3.60;99.90;;;;;;5064057;28;20017;-73
2022/12/21 00:36:25;;;;;;;5.30;2.38;;;4.10;99.90;;;;;;5064000;28;20025;-74
2022/12/21 00:38:51;;;;;;;2.47;1.98;;;3.10;99.90;;;;;;5062759;28;20098;-73
2022/12/21 00:41:19;;;;;;;4.07;1.90;;;3.10;99.90;;;;;;5061976;28;20099;-74
2022/12/21 00:43:46;;;;;;;5.70;2.20;;;4.10;99.90;;;;;;5061810;28;20252;-74
2022/12/21 00:46:18;;;;;;;1.95;1.85;;;3.10;99.90;;;;;;5063953;28;20082;-74
2022/12/21 00:48:45;;;;;;;3.58;2.03;;;3.70;99.90;;;;;;5063475;28;20024;-73
2022/12/21 00:51:13;;;;;;;4.38;2.78;;;3.10;99.90;;;;;;5063630;28;20017;-74
2022/12/21 00:53:40;;;;;;;3.40;2.00;;;3.10;99.90;;;;;;5063253;28;20024;-74
2022/12/21 00:56:07;;;;;;;2.92;2.08;;;3.20;99.90;;;;;;5063144;28;20422;-74
2022/12/21 00:58:34;;;;;;;3.13;2.30;;;3.00;99.90;;;;;;5062641;28;20236;-74
2022/12/21 01:01:05;;;;;;;15.05;6.05;;;3.90;99.90;;;;;;5063230;28;20032;-73
2022/12/21 01:03:31;;;;;;;6.50;4.45;;;3.20;99.90;;;;;;5064454;28;20024;-74
2022/12/21 01:05:56;;;;;;;5.20;3.25;;;3.90;99.90;;;;;;5064100;28;20043;-74
2022/12/21 01:08:24;;;;;;;10.15;3.15;;;5.00;99.90;;;;;;5062289;28;20039;-73
2022/12/21 01:10:59;;;;;;;18.98;3.17;;;3.00;99.90;;;;;;5061857;28;20324;-73
2022/12/21 01:13:27;;;;;;;35.97;3.72;;;4.10;99.90;;;;;;5061652;28;20027;-73
2022/12/21 01:15:52;;;;;;;2.85;2.00;;;3.00;99.90;;;;;;5062358;28;20047;-74
2022/12/21 01:18:18;;;;;;;4.60;2.47;;;3.10;99.90;;;;;;5062313;28;20316;-73
2022/12/21 01:20:47;;;;;;;3.05;2.10;;;3.10;99.90;;;;;;5062947;28;20021;-74
2022/12/21 01:23:13;;;;;;;4.75;3.42;;;4.10;99.90;;;;;;5063793;28;20040;-74
2022/12/21 01:25:41;;;;;;;8.05;2.95;;;3.00;99.90;;;;;;5061895;28;20024;-74
2022/12/21 01:28:07;;;;;;;4.10;2.75;;;2.80;99.90;;;;;;5059144;28;20098;-74
2022/12/21 01:30:32;;;;;;;2.55;1.95;;;3.20;99.90;;;;;;5059876;28;20313;-74
2022/12/21 01:32:58;;;;;;;3.78;3.05;;;3.60;99.90;;;;;;5061801;28;20033;-74
2022/12/21 01:35:23;;;;;;;3.47;2.35;;;3.30;99.90;;;;;;5060813;28;20047;-74
2022/12/21 01:37:49;;;;;;;3.08;1.90;;;3.30;99.90;;;;;;5059264;28;20069;-74
2022/12/21 01:40:14;;;;;;;4.75;2.33;;;3.90;99.90;;;;;;5059294;28;20380;-74
2022/12/21 01:42:40;;;;;;;3.88;2.42;;;3.40;99.90;;;;;;5060586;28;20273;-74
2022/12/21 01:45:21;;;;;;;7.72;2.63;;;3.00;99.90;;;;;;5060772;28;20045;-74
2022/12/21 01:47:57;;;;;;;3.05;2.00;;;3.20;99.90;;;;;;5061791;28;20032;-74
2022/12/21 01:50:43;;;;;;;2.92;2.63;;;3.00;99.90;;;;;;5060813;28;20220;-74
2022/12/21 01:53:29;;;;;;;3.75;2.13;;;3.20;99.90;;;;;;5059239;28;20033;-74
2022/12/21 01:55:57;;;;;;;3.80;2.55;;;3.10;99.90;;;;;;5060253;28;20032;-74
2022/12/21 01:58:25;;;;;;;1.90;1.60;;;3.20;99.90;;;;;;5060397;28;20051;-74
2022/12/21 02:00:52;;;;;;;3.40;3.03;;;3.30;99.90;;;;;;5063136;28;20019;-74
2022/12/21 02:03:21;;;;;;;2.75;2.10;;;4.50;99.90;;;;;;5061734;28;20032;-74
2022/12/21 02:06:01;;;;;;;3.55;2.10;;;3.80;99.90;;;;;;5060632;28;20021;-74
2022/12/21 02:08:27;;;;;;;1.70;1.60;;;3.40;99.90;;;;;;5060445;28;20037;-75
2022/12/21 02:10:54;;;;;;;1.95;1.33;;;4.30;99.90;;;;;;5061441;28;20315;-74
2022/12/21 02:13:20;;;;;;;2.15;1.55;;;4.00;99.90;;;;;;5061580;28;20032;-74
2022/12/21 02:16:02;;;;;;;11.23;2.50;;;3.20;99.90;;;;;;5061435;28;20489;-74
2022/12/21 02:18:33;;;;;;;4.90;2.28;;;4.00;99.90;;;;;;5062194;28;20035;-74
2022/12/21 02:21:21;;;;;;;5.03;2.30;;;3.30;99.90;;;;;;5062185;28;20212;-74
2022/12/21 02:23:49;;;;;;;2.67;1.80;;;3.20;99.90;;;;;;5061453;28;20343;-74
2022/12/21 02:26:46;;;;;;;4.82;2.33;;;4.00;99.90;;;;;;5061576;28;20036;-74
2022/12/21 02:29:46;;;;;;;4.30;2.17;;;3.10;99.90;;;;;;5060201;28;20098;-74
2022/12/21 02:32:27;;;;;;;2.55;2.35;;;3.20;99.90;;;;;;5061755;28;20356;-74
2022/12/21 02:35:24;;;;;;;1.90;1.80;;;3.50;99.90;;;;;;5061619;28;20039;-73
2022/12/21 02:38:07;;;;;;;5.28;2.47;;;3.40;99.90;;;;;;5060152;28;20308;-73
2022/12/21 02:40:42;;;;;;;3.00;1.90;;;3.30;99.90;;;;;;5061285;28;20021;-74
2022/12/21 02:46:03;;;;;;;4.82;2.40;;;3.30;99.90;;;;;;5061567;28;20480;-73
2022/12/21 02:48:49;;;;;;;15.93;3.08;;;3.70;99.90;;;;;;5060980;28;20025;-74
2022/12/21 02:51:39;;;;;;;6.15;2.63;;;3.40;99.90;;;;;;5058657;28;20025;-74
2022/12/21 02:54:06;;;;;;;7.22;2.75;;;4.60;99.90;;;;;;5030932;28;20032;-74
2022/12/21 02:56:31;;;;;;;29.13;4.53;;;4.60;99.90;;;;;;5061046;28;20045;-74
2022/12/21 02:58:58;;;;;;;6.05;2.22;;;4.30;99.90;;;;;;5060406;28;20225;-73
2022/12/21 03:01:41;;;;;;;11.02;3.92;;;5.00;99.90;;;;;;5061063;28;20028;-74
2022/12/21 03:04:27;;;;;;;12.50;3.05;;;3.60;99.90;;;;;;5059381;28;20028;-74
2022/12/21 03:07:30;;;;;;;3.92;2.25;;;3.50;99.90;;;;;;5059609;28;20044;-74
2022/12/21 03:10:18;;;;;;;3.75;2.13;;;3.80;99.90;;;;;;5046973;28;20035;-74
2022/12/21 03:13:09;;;;;;;10.48;3.85;;;3.80;99.90;;;;;;5060036;28;20340;-74
2022/12/21 03:16:00;;;;;;;3.33;2.13;;;4.30;99.90;;;;;;5059757;28;20096;-74
2022/12/21 03:18:54;;;;;;;12.73;4.13;;;3.90;99.90;;;;;;5057764;28;20096;-74
2022/12/21 03:21:34;;;;;;;8.57;1.98;;;3.90;99.90;;;;;;5060167;28;20063;-74
2022/12/21 03:24:12;;;;;;;7.38;1.90;;;3.70;99.90;;;;;;5058515;28;20028;-74
2022/12/21 03:26:56;;;;;;;8.57;2.92;;;3.80;99.90;;;;;;5059981;28;20075;-74
2022/12/21 03:29:29;;;;;;;10.95;3.15;;;3.60;99.90;;;;;;5058227;28;20143;-74
2022/12/21 03:32:07;;;;;;;6.32;2.35;;;3.60;99.90;;;;;;5059526;28;20032;-74
2022/12/21 03:34:37;;;;;;;19.75;6.15;;;3.80;99.90;;;;;;5058242;28;20152;-74
2022/12/21 03:37:17;;;;;;;12.77;4.40;;;4.50;99.90;;;;;;5060797;28;20088;-74
2022/12/21 03:39:50;;;;;;;7.95;1.98;;;4.30;99.90;;;;;;5055566;28;20072;-74
2022/12/21 03:42:21;;;;;;;9.20;2.08;;;3.90;99.90;;;;;;5060393;28;20029;-74
2022/12/21 03:44:56;;;;;;;7.63;1.90;;;3.70;99.90;;;;;;5062166;28;20025;-74
2022/12/21 03:47:35;;;;;;;8.68;1.38;;;3.90;99.90;;;;;;5061262;28;20289;-73
2022/12/21 03:50:06;;;;;;;6.78;3.00;;;4.80;99.90;;;;;;5061544;28;20051;-74
2022/12/21 03:53:00;;;;;;;6.57;1.70;;;3.80;99.90;;;;;;5061027;28;20036;-74
2022/12/21 03:55:30;;;;;;;11.77;2.33;;;4.70;99.90;;;;;;5064186;28;20020;-74
2022/12/21 03:57:57;;;;;;;24.77;3.08;;;3.60;99.90;;;;;;5064245;28;20055;-74
2022/12/21 04:00:24;;;;;;;3.53;2.00;;;3.50;99.90;;;;;;5062868;28;20100;-73
2022/12/21 04:03:02;;;;;;;3.92;2.38;;;3.60;99.90;;;;;;5063426;28;20035;-74
2022/12/21 04:05:33;;;;;;;5.53;2.45;;;3.90;99.90;;;;;;5062512;28;20248;-74
2022/12/21 04:08:00;;;;;;;8.45;2.10;;;3.60;99.90;;;;;;5063127;28;20040;-74
2022/12/21 04:10:27;;;;;;;1.35;1.25;;;3.60;99.90;;;;;;5063689;28;20055;-74
2022/12/21 04:12:52;;;;;;;9.10;2.42;;;3.40;99.90;;;;;;5064374;28;20021;-73
2022/12/21 04:16:03;;;;;;;5.75;2.20;;;3.40;99.90;;;;;;5064231;28;20024;-74
2022/12/21 04:18:14;;;;;;;4.75;1.90;;;;;;;;;;5064004;28;20075;-74
2022/12/21 04:20:40;;;;;;;6.18;2.33;;;3.60;99.90;;;;;;5063993;28;20035;-74
2022/12/21 04:28:34;;;;;;;3.63;1.52;;;3.80;99.90;;;;;;5063164;28;20347;-75
2022/12/21 04:31:00;;;;;;;2.67;1.88;;;4.70;99.90;;;;;;5063032;28;20037;-73
2022/12/21 04:33:30;;;;;;;5.45;2.17;;;3.60;99.90;;;;;;5062043;28;20094;-74
2022/12/21 04:38:42;;;;;;;9.27;2.45;;;3.50;99.90;;;;;;5062903;28;20372;-74
2022/12/21 04:41:08;;;;;;;4.40;2.30;;;3.60;99.90;;;;;;5062434;28;20040;-73
2022/12/21 04:43:39;;;;;;;8.32;2.13;;;4.40;99.90;;;;;;5063240;28;20025;-74
2022/12/21 04:46:10;;;;;;;2.75;1.52;;;3.50;99.90;;;;;;5063775;28;20093;-74
2022/12/21 04:48:36;;;;;;;5.95;2.30;;;3.80;99.90;;;;;;5064133;28;20060;-74
2022/12/21 04:51:10;;;;;;;8.30;2.42;;;3.60;99.90;;;;;;5063677;28;20025;-74
2022/12/21 04:53:37;;;;;;;6.65;2.75;;;3.60;99.90;;;;;;5063877;28;20225;-74
2022/12/21 04:56:03;;;;;;;5.72;1.50;;;4.10;99.90;;;;;;5062339;28;20296;-73
2022/12/21 04:58:29;;;;;;;3.25;1.52;;;3.50;99.90;;;;;;5062116;28;20056;-73
2022/12/21 05:00:54;;;;;;;4.75;2.38;;;4.00;99.90;;;;;;5063608;28;20025;-73
2022/12/21 05:03:20;;;;;;;2.38;1.52;;;3.40;99.90;;;;;;5063837;28;20088;-74
2022/12/21 05:05:46;;;;;;;1.63;1.30;;;3.30;99.90;;;;;;5064060;28;20032;-74
2022/12/21 05:08:15;;;;;;;2.55;1.50;;;3.50;99.90;;;;;;5063056;28;20025;-74
2022/12/21 05:10:41;;;;;;;3.75;1.45;;;4.30;99.90;;;;;;5064072;28;20029;-74
2022/12/21 05:13:06;;;;;;;2.25;1.65;;;4.50;99.90;;;;;;5062246;28;20348;-73
2022/12/21 05:15:39;;;;;;;5.07;2.03;;;4.50;99.90;;;;;;5062009;28;20028;-74
2022/12/21 05:18:05;;;;;;;2.20;1.70;;;3.60;99.90;;;;;;5059893;28;20053;-74
2022/12/21 05:20:30;;;;;;;4.03;1.63;;;3.20;99.90;;;;;;5060901;28;20154;-74
2022/12/21 05:22:56;;;;;;;2.63;1.73;;;4.00;99.90;;;;;;5063804;28;20025;-73
2022/12/21 05:25:22;;;;;;;13.00;3.88;;;4.10;99.90;;;;;;5063518;28;20037;-74
2022/12/21 05:27:47;;;;;;;8.88;1.55;;;3.40;99.90;;;;;;5062959;28;20043;-74
2022/12/21 05:30:13;;;;;;;6.07;1.60;;;4.00;99.90;;;;;;5064023;28;20021;-74
2022/12/21 05:32:38;;;;;;;11.52;3.17;;;3.30;99.90;;;;;;5062665;28;20376;-74
2022/12/21 05:35:04;;;;;;;4.22;1.65;;;3.40;99.90;;;;;;5063882;28;20021;-74
2022/12/21 05:37:30;;;;;;;3.45;2.03;;;3.30;99.90;;;;;;5063407;28;20244;-74
2022/12/21 05:39:56;;;;;;;3.67;1.50;;;;;;;;;;5061971;28;20100;-74
2022/12/21 05:42:21;;;;;;;1.23;1.17;;;3.90;99.90;;;;;;5061223;28;20051;-75
2022/12/21 05:44:47;;;;;;;3.80;1.88;;;3.40;99.90;;;;;;5060770;28;20351;-74
2022/12/21 05:47:13;;;;;;;2.35;1.70;;;;;;;;;;5061499;28;20095;-74
2022/12/21 05:49:38;;;;;;;8.07;1.80;;;3.30;99.90;;;;;;5060601;28;20043;-74
2022/12/21 05:52:04;;;;;;;3.80;1.70;;;3.60;99.90;;;;;;5063732;28;20213;-75
2022/12/21 05:54:30;;;;;;;27.30;7.85;;;;;;;;;;5063217;28;20024;-75
2022/12/21 05:56:56;;;;;;;2.08;1.58;;;3.60;99.90;;;;;;5061149;28;20033;-75
2022/12/21 05:59:21;;;;;;;2.13;1.95;;;4.30;99.90;;;;;;5063037;28;20021;-74
2022/12/21 06:01:47;;;;;;;3.08;1.83;;;3.60;99.90;;;;;;5062811;28;20039;-74
2022/12/21 06:04:13;;;;;;;2.13;1.40;;;3.40;99.90;;;;;;5063380;28;20044;-74
2022/12/21 06:06:38;;;;;;;2.90;2.10;;;4.40;99.90;;;;;;5062886;28;20059;-74
2022/12/21 06:09:04;;;;;;;3.00;1.85;;;4.60;99.90;;;;;;5061898;28;20025;-74
2022/12/21 06:11:31;;;;;;;5.00;1.52;;;4.00;99.90;;;;;;5061337;28;20029;-74
2022/12/21 06:13:57;;;;;;;11.50;3.53;;;3.40;99.90;;;;;;5061328;28;20017;-73
2022/12/21 06:16:25;;;;;;;2.70;2.05;;;3.90;99.90;;;;;;5062769;28;20032;-74
2022/12/21 06:18:51;;;;;;;4.88;1.85;;;4.50;99.90;;;;;;5062752;28;20309;-74
2022/12/21 06:21:18;;;;;;;20.10;6.82;;;5.10;99.90;;;;;;5062959;28;20087;-74
2022/12/21 06:23:44;;;;;;;1.80;1.30;;;3.60;99.90;;;;;;5061886;28;20309;-74
2022/12/21 06:26:18;;;;;;;10.55;3.42;;;3.50;99.90;;;;;;5061329;28;20060;-74
2022/12/21 06:28:52;;;;;;;2.03;1.92;;;3.80;99.90;;;;;;5059734;28;20117;-74
2022/12/21 06:31:19;;;;;;;1.30;1.23;;;4.20;99.90;;;;;;5061508;28;20025;-73
2022/12/21 06:33:44;;;;;;;4.57;1.60;;;3.10;99.90;;;;;;5061425;28;20025;-75
2022/12/21 06:36:11;;;;;;;5.55;1.77;;;3.30;99.90;;;;;;5061249;28;20017;-74
2022/12/21 06:38:37;;;;;;;6.22;2.33;;;3.70;99.90;;;;;;5059529;28;20300;-75
2022/12/21 06:41:06;;;;;;;5.65;1.95;;;3.20;99.90;;;;;;5059992;28;20017;-74
2022/12/21 06:43:32;;;;;;;6.60;1.77;;;3.80;99.90;;;;;;5062315;28;20029;-74
2022/12/21 06:46:01;;;;;;;7.53;1.70;;;3.40;99.90;;;;;;5060613;28;20040;-75
2022/12/21 06:48:28;;;;;;;4.65;2.05;;;4.60;99.90;;;;;;5061516;28;20021;-74
2022/12/21 06:50:56;;;;;;;5.53;1.70;;;3.40;99.90;;;;;;5061785;28;20033;-75
2022/12/21 06:53:23;;;;;;;6.57;2.28;;;3.50;99.90;;;;;;5060830;28;20467;-75
2022/12/21 06:55:49;;;;;;;7.00;1.90;;;3.40;99.90;;;;;;5060177;28;20025;-75
2022/12/21 06:58:15;;;;;;;14.18;5.25;;;3.90;99.90;;;;;;5062282;28;20025;-75
2022/12/21 07:00:41;;;;;;;2.38;1.40;;;3.40;99.90;;;;;;5062823;28;20216;-75
2022/12/21 07:03:07;;;;;;;1.70;1.20;;;;;;;;;;5061876;28;20033;-75
2022/12/21 07:05:33;;;;;;;3.90;1.88;;;2.60;99.90;;;;;;5060802;28;20497;-74
2022/12/21 07:07:59;;;;;;;3.45;1.48;;;3.20;99.90;;;;;;5061500;28;20053;-75
2022/12/21 07:10:25;;;;;;;2.33;1.65;;;3.60;99.90;;;;;;5061343;28;20059;-75
2022/12/21 07:12:51;;;;;;;4.55;2.15;;;3.70;99.90;;;;;;5060492;28;20056;-75
2022/12/21 07:15:16;;;;;;;5.40;1.45;;;3.50;99.90;;;;;;5062097;28;20048;-75
2022/12/21 07:17:42;;;;;;;7.43;3.17;;;4.00;99.90;;;;;;5061730;28;20029;-75
2022/12/21 07:20:08;;;;;;;1.80;1.55;;;3.90;99.90;;;;;;5060621;28;20024;-75
2022/12/21 07:22:34;;;;;;;4.03;1.52;;;3.80;99.90;;;;;;5061551;28;20063;-74
2022/12/21 07:24:59;;;;;;;1.58;1.38;;;4.60;99.90;;;;;;5060716;28;20074;-75
2022/12/21 07:27:25;;;;;;;3.13;1.73;;;4.10;99.90;;;;;;5063506;28;20143;-74
2022/12/21 07:29:51;;;;;;;1.95;1.85;;;;;;;;;;5066801;28;20036;-74
2022/12/21 07:32:16;;;;;;;3.65;1.95;;;3.60;99.90;;;;;;5065542;28;20080;-75
2022/12/21 07:34:42;;;;;;;5.05;2.47;;;3.70;99.90;;;;;;5063693;28;20373;-74
2022/12/21 07:37:08;;;;;;;11.63;2.78;;;4.30;99.90;;;;;;5064023;28;20213;-75
2022/12/21 07:39:33;;;;;;;1.35;1.25;;;3.70;99.90;;;;;;5064115;28;20025;-75
2022/12/21 07:41:59;;;;;;;2.88;1.73;;;3.90;99.90;;;;;;5063311;28;20036;-75
2022/12/21 07:44:25;;;;;;;2.10;1.77;;;4.30;99.90;;;;;;5063251;28;20320;-75
2022/12/21 07:46:51;;;;;;;3.47;1.65;;;4.40;99.90;;;;;;5062686;28;20087;-75
2022/12/21 07:49:16;;;;;;;2.45;1.52;;;4.30;99.90;;;;;;5064303;28;20028;-75
2022/12/21 07:51:42;;;;;;;2.42;2.22;;;4.50;99.90;;;;;;5060976;28;20032;-75
2022/12/21 07:54:08;;;;;;;5.65;3.10;;;3.60;99.90;;;;;;5063384;28;20025;-74
2022/12/21 07:56:33;;;;;;;1.92;1.67;;;3.80;99.90;;;;;;5062992;28;20031;-74
2022/12/21 07:59:00;;;;;;;1.48;1.38;;;4.30;99.90;;;;;;5061875;28;20017;-74
2022/12/21 08:01:26;;;;;;;4.07;2.08;;;4.00;99.90;;;;;;5062080;28;20382;-75
2022/12/21 08:03:53;;;;;;;4.60;3.38;;;;;;;;;;5062724;28;20021;-75
2022/12/21 08:06:19;;;;;;;18.27;10.98;;;3.80;99.90;;;;;;5062862;28;20025;-75
2022/12/21 08:08:45;;;;;;;10.77;8.20;;;4.50;99.90;;;;;;5065755;28;20023;-75
2022/12/21 08:11:14;;;;;;;14.25;9.27;;;4.00;99.90;;;;;;5064143;28;20021;-75
2022/12/21 08:13:43;;;;;;;48.90;23.95;;;4.90;99.90;;;;;;5063128;28;20348;-75
2022/12/21 08:16:12;;;;;;;31.50;19.27;;;4.20;99.90;;;;;;5062440;28;20060;-75
2022/12/21 08:18:38;;;;;;;16.27;8.70;;;5.10;99.90;;;;;;5061142;28;20024;-75
2022/12/21 08:21:04;;;;;;;17.40;11.20;;;4.60;99.90;;;;;;5060628;28;20100;-75
2022/12/21 08:23:30;;;;;;;34.05;15.20;;;4.70;99.90;;;;;;5062495;28;20021;-75
2022/12/21 08:26:04;;;;;;;18.65;11.25;;;5.00;99.90;;;;;;5061124;28;20032;-74
2022/12/21 08:28:30;;;;;;;18.17;11.43;;;4.60;99.90;;;;;;5062635;28;20112;-74
2022/12/21 08:31:04;;;;;;;40.33;20.08;;;5.00;99.90;;;;;;5063458;28;20067;-74
2022/12/21 08:33:30;;;;;;;30.77;17.65;;;4.80;99.90;;;;;;5062027;28;20328;-74
2022/12/21 08:35:56;;;;;;;27.25;14.07;;;5.40;99.90;;;;;;5065161;28;20025;-73
2022/12/21 08:38:22;;;;;;;24.80;12.65;;;5.20;99.90;;;;;;5063727;28;20052;-74
2022/12/21 08:40:48;;;;;;;25.70;12.85;;;4.90;99.90;;;;;;5062571;28;20076;-75
2022/12/21 08:43:14;;;;;;;17.15;10.00;;;5.20;99.90;;;;;;5060877;28;20033;-75
2022/12/21 08:45:39;;;;;;;22.42;10.63;;;5.00;99.90;;;;;;5060976;28;20048;-74
2022/12/21 08:48:05;;;;;;;22.73;13.63;;;5.30;99.90;;;;;;5060472;28;20108;-76
2022/12/21 08:50:31;;;;;;;16.65;11.18;;;4.70;99.90;;;;;;5062247;28;20020;-75
2022/12/21 08:52:57;;;;;;;22.20;13.50;;;5.00;99.90;;;;;;5060986;28;20047;-75
2022/12/21 08:55:23;;;;;;;23.52;15.30;;;5.70;99.90;;;;;;5043314;28;20180;-75
2022/12/21 08:57:48;;;;;;;24.35;14.73;;;5.20;99.90;;;;;;5041282;28;20506;-74
2022/12/21 09:00:14;;;;;;;24.63;13.32;;;5.00;99.90;;;;;;5042293;28;20029;-75
2022/12/21 09:02:40;;;;;;;24.00;15.93;;;5.30;99.90;;;;;;5041861;28;20128;-74
2022/12/21 09:05:06;;;;;;;24.50;14.13;;;5.30;99.90;;;;;;5032997;28;20037;-75
2022/12/21 09:07:32;;;;;;;18.08;10.65;;;5.30;99.90;;;;;;5032015;28;20029;-75
2022/12/21 09:09:57;;;;;;;19.73;11.40;;;5.30;99.90;;;;;;5030358;28;20030;-75
2022/12/21 09:12:23;;;;;;;22.38;12.57;;;5.70;99.90;;;;;;5030425;28;20053;-75
2022/12/21 09:14:49;;;;;;;18.13;13.43;;;5.80;99.90;;;;;;5030182;28;20033;-75
2022/12/21 09:17:14;;;;;;;20.23;12.18;;;5.60;99.90;;;;;;5036267;28;20386;-75
2022/12/21 09:19:40;;;;;;;27.98;14.27;;;5.80;99.90;;;;;;5030367;28;20025;-75
2022/12/21 09:22:05;;;;;;;23.25;11.98;;;5.70;99.90;;;;;;5033223;28;20017;-74
2022/12/21 09:24:31;;;;;;;25.50;16.60;;;5.70;99.90;;;;;;5031243;28;20071;-75
2022/12/21 09:26:57;;;;;;;27.88;15.38;;;5.90;99.90;;;;;;5031330;28;20447;-75
2022/12/21 09:29:23;;;;;;;21.83;13.32;;;6.00;99.90;;;;;;5031072;28;20553;-75
2022/12/21 09:31:50;;;;;;;26.27;16.75;;;6.40;99.90;;;;;;5030949;28;20026;-74
2022/12/21 09:34:17;;;;;;;27.17;15.43;;;6.00;99.90;;;;;;5031602;28;20022;-75
2022/12/21 09:36:43;;;;;;;32.95;17.83;;;6.10;99.90;;;;;;5046440;28;20028;-74
2022/12/21 09:39:09;;;;;;;16.80;10.95;;;6.20;99.90;;;;;;5030107;28;20160;-76
2022/12/21 09:41:43;;;;;;;24.40;15.00;;;6.40;99.90;;;;;;5029584;28;20112;-74
2022/12/21 09:44:21;;;;;;;21.17;15.45;;;6.30;99.90;;;;;;5031291;28;20037;-75
2022/12/21 09:46:53;;;;;;;16.05;9.20;;;6.30;99.90;;;;;;5029739;28;20033;-73
2022/12/21 09:49:33;;;;;;;16.13;9.43;;;6.60;99.90;;;;;;5029671;28;20042;-74
2022/12/21 09:52:02;;;;;;;19.05;11.32;;;6.30;99.90;;;;;;5035831;28;20043;-75
2022/12/21 09:54:40;;;;;;;19.95;10.02;;;6.50;99.90;;;;;;5032247;28;20040;-76
2022/12/21 09:57:10;;;;;;;15.57;9.20;;;6.60;99.90;;;;;;5035645;28;20495;-74
2022/12/21 09:59:35;;;;;;;21.33;13.85;;;6.80;99.90;;;;;;5045353;28;20025;-74
2022/12/21 10:02:29;;;;;;;17.95;11.27;;;7.00;99.90;;;;;;5054383;28;20022;-74
2022/12/21 10:05:17;;;;;;;19.73;10.70;;;7.00;99.90;;;;;;5057840;28;20317;-74
2022/12/21 10:08:19;;;;;;;24.77;16.73;;;7.10;99.90;;;;;;5061806;28;20033;-73
2022/12/21 10:11:20;;;;;;;11.70;9.45;;;7.40;99.90;;;;;;5054424;28;20079;-75
2022/12/21 10:13:59;;;;;;;21.50;12.98;;;7.30;99.90;;;;;;5040314;28;20033;-75
2022/12/21 10:16:56;;;;;;;17.90;10.65;;;7.60;99.90;;;;;;5053616;28;20028;-74
2022/12/21 10:20:02;;;;;;;19.08;11.85;;;7.50;99.90;;;;;;5058432;28;20048;-75
2022/12/21 10:22:41;;;;;;;18.63;12.07;;;8.00;99.90;;;;;;5047528;28;20411;-74
2022/12/21 10:25:30;;;;;;;;;;;8.10;99.90;;;;;;5045901;28;20036;-75
2022/12/21 10:28:29;;;;;;;17.20;7.88;;;8.10;99.90;;;;;;5048738;28;20366;-75
2022/12/21 10:31:03;;;;;;;8.37;5.17;;;8.40;99.90;;;;;;5048030;28;20119;-74
2022/12/21 10:33:29;;;;;;;7.50;5.63;;;8.20;99.90;;;;;;5049954;28;20048;-74
2022/12/21 10:36:00;;;;;;;9.63;6.60;;;8.20;99.90;;;;;;5048561;28;20176;-74
2022/12/21 10:38:31;;;;;;;10.35;6.30;;;8.30;99.90;;;;;;5046811;28;20480;-74
2022/12/21 10:40:58;;;;;;;12.48;7.03;;;8.20;99.90;;;;;;5049500;28;20031;-76
2022/12/21 10:43:24;;;;;;;7.20;5.45;;;8.20;99.90;;;;;;5047347;28;20476;-75
2022/12/21 10:45:49;;;;;;;7.22;5.78;;;8.20;99.90;;;;;;5030130;28;20411;-74
2022/12/21 10:48:15;;;;;;;6.30;5.20;;;8.20;99.90;;;;;;5028313;28;20021;-74
2022/12/21 10:50:45;;;;;;;9.82;5.78;;;8.40;99.90;;;;;;5029295;28;20047;-74
2022/12/21 10:53:22;;;;;;;;;;;8.60;99.90;;;;;;5027757;28;20104;-75
2022/12/21 10:55:50;;;;;;;6.43;5.50;;;8.80;99.90;;;;;;5030886;28;20301;-76
2022/12/21 10:58:20;;;;;;;6.22;4.88;;;8.80;99.90;;;;;;5037339;28;20021;-76
2022/12/21 11:00:54;;;;;;;9.65;6.30;;;9.00;99.90;;;;;;5048743;28;20013;-75
2022/12/21 11:03:25;;;;;;;32.45;16.85;;;9.00;99.90;;;;;;5047034;28;20082;-73
2022/12/21 11:05:51;;;;;;;30.25;18.33;;;8.70;99.90;;;;;;5045983;28;20032;-75
2022/12/21 11:08:30;;;;;;;33.97;17.40;;;9.00;99.90;;;;;;5039985;28;20021;-74
2022/12/21 11:10:59;;;;;;;28.15;13.50;;;8.80;99.90;;;;;;5042981;28;20021;-75
2022/12/21 11:13:27;;;;;;;15.20;9.77;;;8.60;99.90;;;;;;5044691;28;20086;-76
2022/12/21 11:16:07;;;;;;;28.13;14.07;;;8.20;99.90;;;;;;5049617;28;20052;-76
2022/12/21 11:18:39;;;;;;;15.75;9.07;;;8.20;99.90;;;;;;5049626;28;20700;-76
2022/12/21 11:21:30;;;;;;;8.88;5.32;;;8.20;99.90;;;;;;5050509;28;20105;-77
2022/12/21 11:24:21;;;;;;;7.35;5.18;;;8.30;99.90;;;;;;5048869;28;20051;-75
2022/12/21 11:26:50;;;;;;;1.98;1.83;;;8.50;99.90;;;;;;5050278;28;20063;-76
2022/12/21 11:29:23;;;;;;;0.75;0.75;;;9.10;99.90;;;;;;5048530;28;20025;-76
2022/12/21 11:31:49;;;;;;;1.15;1.05;;;;;;;;;;5050071;28;20029;-76
2022/12/21 11:34:31;;;;;;;8.15;0.85;;;10.00;99.90;;;;;;5048681;28;20031;-75
2022/12/21 11:37:00;;;;;;;1.55;0.55;;;10.10;99.90;;;;;;5054753;28;20025;-75
2022/12/21 11:39:27;;;;;;;0.28;0.28;;;10.20;99.90;;;;;;5059872;28;20017;-74
2022/12/21 11:41:54;;;;;;;0.30;0.30;;;10.00;99.90;;;;;;5055032;28;20031;-75
2022/12/21 11:44:29;;;;;;;0.40;0.40;;;10.10;99.90;;;;;;5049207;28;20044;-75
2022/12/21 11:47:21;;;;;;;0.20;0.20;;;10.10;99.90;;;;;;5054191;28;20037;-75
2022/12/21 11:50:25;;;;;;;0.65;0.63;;;10.10;99.90;;;;;;5057324;28;20184;-73
2022/12/21 11:53:21;;;;;;;0.52;0.50;;;9.90;99.90;;;;;;5059188;28;20033;-75
2022/12/21 11:56:09;;;;;;;0.93;0.40;;;10.00;99.90;;;;;;5057120;28;20139;-76
2022/12/21 11:58:55;;;;;;;0.30;0.30;;;10.10;99.90;;;;;;5057168;28;20021;-75
2022/12/21 12:01:44;;;;;;;1.55;0.40;;;10.20;99.90;;;;;;5056809;28;20333;-75
2022/12/21 12:04:34;;;;;;;0.15;0.15;;;10.30;99.90;;;;;;5057254;28;20025;-77
2022/12/21 12:07:09;;;;;;;0.40;0.40;;;10.30;99.90;;;;;;5053562;28;20049;-74
2022/12/21 12:09:51;;;;;;;0.45;0.45;;;10.20;99.90;;;;;;5045024;28;20025;-76
2022/12/21 12:12:30;;;;;;;0.35;0.35;;;10.40;99.90;;;;;;5044942;28;20410;-74
2022/12/21 12:15:30;;;;;;;0.30;0.30;;;10.40;99.90;;;;;;5033082;28;20025;-76
2022/12/21 12:18:18;;;;;;;0.47;0.45;;;10.30;99.90;;;;;;5040316;28;20069;-76
2022/12/21 12:21:18;;;;;;;0.45;0.45;;;10.40;99.90;;;;;;5053594;28;20091;-76
2022/12/21 12:24:21;;;;;;;0.43;0.40;;;10.40;99.90;;;;;;5053500;28;20025;-75
2022/12/21 12:27:17;;;;;;;0.35;0.35;;;10.40;99.90;;;;;;5052501;28;20040;-74
2022/12/21 12:30:01;;;;;;;3.22;2.35;;;10.30;99.90;;;;;;5055186;28;20096;-73
2022/12/21 12:32:44;;;;;;;2.75;1.92;;;10.50;99.90;;;;;;5053868;28;20112;-76
2022/12/21 12:35:43;;;;;;;2.42;0.80;;;10.50;99.90;;;;;;5054452;28;20535;-76
2022/12/21 12:38:15;;;;;;;0.22;0.22;;;10.60;99.90;;;;;;5053075;28;20037;-73
2022/12/21 12:40:43;;;;;;;0.35;0.28;;;10.60;99.90;;;;;;5054839;28;20071;-74
2022/12/21 12:43:39;;;;;;;0.50;0.50;;;10.70;99.90;;;;;;5052689;28;20044;-75
2022/12/21 12:46:05;;;;;;;0.43;0.30;;;10.60;99.90;;;;;;5027259;28;20581;-76
2022/12/21 12:49:03;;;;;;;0.30;0.30;;;10.70;99.90;;;;;;5052698;28;20115;-74
2022/12/21 12:51:47;;;;;;;0.57;0.30;;;11.30;99.90;;;;;;5053281;28;20025;-75
2022/12/21 12:54:28;;;;;;;1.60;0.40;;;10.80;99.90;;;;;;5055576;28;20036;-73
2022/12/21 12:57:35;;;;;;;0.80;0.60;;;10.70;99.90;;;;;;5053110;28;20028;-73
2022/12/21 13:00:11;;;;;;;3.90;0.82;;;10.70;99.90;;;;;;5053476;28;20087;-76
2022/12/21 13:02:57;;;;;;;1.27;0.77;;;10.90;99.90;;;;;;5053463;28;20063;-73
2022/12/21 13:06:04;;;;;;;3.40;0.52;;;10.70;99.90;;;;;;5053127;28;20089;-74
2022/12/21 13:08:42;;;;;;;0.47;0.47;;;10.60;99.90;;;;;;5051859;28;20132;-76
2022/12/21 13:11:55;;;;;;;0.52;0.52;;;10.60;99.90;;;;;;5052417;28;20025;-73
2022/12/21 13:14:24;;;;;;;0.30;0.30;;;10.60;99.90;;;;;;5017915;28;20452;-76
2022/12/21 13:17:16;;;;;;;1.20;0.30;;;10.70;99.90;;;;;;5053179;28;20025;-74
2022/12/21 13:19:43;;;;;;;0.30;0.30;;;10.80;99.90;;;;;;5021368;28;20428;-77
2022/12/21 13:22:11;;;;;;;2.38;0.32;;;10.90;99.90;;;;;;5051123;28;20021;-76
2022/12/21 13:25:12;;;;;;;0.45;0.45;;;10.90;99.90;;;;;;5050447;28;20031;-76
2022/12/21 13:27:41;;;;;;;0.98;0.70;;;11.10;99.90;;;;;;5026047;28;20540;-76
2022/12/21 13:30:18;;;;;;;0.85;0.60;;;11.00;99.90;;;;;;5047309;28;20017;-78
2022/12/21 13:32:49;;;;;;;2.60;0.50;;;11.30;99.90;;;;;;5052086;28;20021;-76